Time;durP1;ratioP1;P1;durP2;ratioP2;P2;SDS_P1;SDS_P2;PMS_P1;PMS_P2;Temp;Humidity;BMP_temperature;BMP_pressure;BME280_temperature;BME280_humidity;BME280_pressure;Samples;Min_cycle;Max_cycle;Signal;HPM_P1;HPM_P2
2022/08/07 00:00:43;;;;;;;1.38;0.60;;;21.00;80.70;;;;;;5037837;28;20100;-74
2022/08/07 00:03:09;;;;;;;0.77;0.63;;;21.00;80.70;;;;;;5030971;28;20026;-74
2022/08/07 00:05:36;;;;;;;1.00;0.60;;;21.00;80.60;;;;;;5045970;28;20082;-75
2022/08/07 00:08:02;;;;;;;0.98;0.63;;;21.00;80.70;;;;;;5039192;28;20437;-75
2022/08/07 00:10:28;;;;;;;0.50;0.40;;;21.00;80.80;;;;;;5037202;28;20022;-75
2022/08/07 00:12:54;;;;;;;0.82;0.60;;;21.00;80.90;;;;;;5042194;28;20108;-74
2022/08/07 00:15:20;;;;;;;0.95;0.70;;;20.90;81.00;;;;;;5042201;28;20112;-75
2022/08/07 00:17:45;;;;;;;1.10;0.70;;;20.90;81.10;;;;;;5035137;28;20029;-75
2022/08/07 00:20:11;;;;;;;1.00;0.70;;;20.90;81.10;;;;;;5045155;28;20406;-76
2022/08/07 00:22:37;;;;;;;0.82;0.60;;;20.90;81.20;;;;;;5017223;28;20167;-75
2022/08/07 00:25:06;;;;;;;0.80;0.80;;;20.90;81.20;;;;;;5017302;28;20116;-76
2022/08/07 00:27:32;;;;;;;1.10;0.70;;;20.90;81.20;;;;;;5034925;28;20108;-74
2022/08/07 00:29:58;;;;;;;0.90;0.80;;;20.90;81.30;;;;;;5034342;28;20135;-74
2022/08/07 00:32:23;;;;;;;1.58;0.70;;;20.90;81.30;;;;;;5017084;28;20036;-75
2022/08/07 00:34:49;;;;;;;1.33;0.70;;;20.90;81.30;;;;;;5034579;28;20707;-75
2022/08/07 00:37:15;;;;;;;1.00;0.68;;;20.90;81.40;;;;;;5033737;28;20053;-75
2022/08/07 00:39:41;;;;;;;1.50;0.80;;;20.90;81.30;;;;;;5032909;28;20108;-75
2022/08/07 00:42:07;;;;;;;0.90;0.70;;;20.90;81.20;;;;;;5049040;28;20442;-76
2022/08/07 00:44:33;;;;;;;0.82;0.60;;;20.90;81.10;;;;;;5033684;28;20029;-75
2022/08/07 00:47:00;;;;;;;0.98;0.70;;;20.90;81.00;;;;;;5033431;28;20029;-75
2022/08/07 00:49:26;;;;;;;1.08;0.70;;;21.00;81.00;;;;;;5033552;28;20501;-74
2022/08/07 00:51:51;;;;;;;0.60;0.60;;;21.00;80.90;;;;;;5026879;28;20080;-75
2022/08/07 00:54:17;;;;;;;1.08;0.70;;;21.00;81.00;;;;;;5047566;28;20048;-75
2022/08/07 00:56:43;;;;;;;0.95;0.70;;;21.00;81.10;;;;;;5016455;28;20021;-75
2022/08/07 00:59:09;;;;;;;1.35;0.90;;;21.00;81.10;;;;;;5016339;28;20020;-75
2022/08/07 01:01:35;;;;;;;1.20;0.80;;;20.90;81.10;;;;;;5040336;28;20397;-74
2022/08/07 01:04:04;;;;;;;1.23;0.70;;;20.90;81.30;;;;;;5038037;28;20036;-74
2022/08/07 01:06:30;;;;;;;1.00;0.80;;;20.90;81.40;;;;;;5038015;28;20394;-75
2022/08/07 01:08:57;;;;;;;1.00;0.70;;;20.90;81.40;;;;;;5016069;28;20025;-74
2022/08/07 01:11:22;;;;;;;1.00;0.80;;;20.90;81.50;;;;;;5019074;28;20025;-75
2022/08/07 01:13:48;;;;;;;0.75;0.73;;;20.90;81.50;;;;;;5033065;28;20025;-75
2022/08/07 01:16:14;;;;;;;0.75;0.70;;;20.80;81.40;;;;;;5032213;28;20482;-74
2022/08/07 01:18:40;;;;;;;1.38;0.73;;;20.90;81.50;;;;;;5037185;28;20028;-75
2022/08/07 01:21:14;;;;;;;2.13;0.80;;;20.90;81.60;;;;;;5047719;28;20021;-76
2022/08/07 01:23:44;;;;;;;0.70;0.70;;;20.90;81.60;;;;;;5035521;28;20031;-76
2022/08/07 01:26:12;;;;;;;1.45;0.80;;;20.90;81.70;;;;;;5030480;28;20093;-75
2022/08/07 01:28:40;;;;;;;1.02;0.80;;;20.80;81.60;;;;;;5034577;28;20101;-75
2022/08/07 01:31:06;;;;;;;0.70;0.70;;;20.90;81.70;;;;;;5045294;28;20033;-76
2022/08/07 01:33:32;;;;;;;1.35;0.80;;;20.90;81.50;;;;;;5044766;28;20056;-76
2022/08/07 01:36:01;;;;;;;0.70;0.63;;;20.90;81.50;;;;;;5042382;28;20117;-75
2022/08/07 01:38:28;;;;;;;1.17;0.70;;;20.90;81.40;;;;;;5047432;28;20029;-76
2022/08/07 01:40:59;;;;;;;1.35;0.90;;;21.00;81.30;;;;;;5033064;28;20461;-75
2022/08/07 01:43:26;;;;;;;0.77;0.77;;;21.00;81.30;;;;;;5033093;28;20034;-74
2022/08/07 01:45:53;;;;;;;1.00;0.80;;;20.90;81.30;;;;;;5039471;28;20492;-74
2022/08/07 01:48:19;;;;;;;1.17;0.60;;;20.90;81.30;;;;;;5043394;28;20025;-75
2022/08/07 01:51:06;;;;;;;2.03;0.77;;;20.90;81.40;;;;;;5032697;28;20551;-74
2022/08/07 01:53:34;;;;;;;1.00;0.75;;;20.90;81.60;;;;;;5017120;28;20540;-75
2022/08/07 01:56:04;;;;;;;1.33;0.85;;;20.90;81.60;;;;;;5039244;28;20024;-75
2022/08/07 01:58:33;;;;;;;1.35;0.90;;;20.90;81.70;;;;;;5050394;28;20032;-74
2022/08/07 02:01:09;;;;;;;1.42;0.80;;;20.90;81.70;;;;;;5047486;28;20145;-74
2022/08/07 02:03:42;;;;;;;1.10;0.82;;;20.90;81.80;;;;;;5007792;28;20544;-74
2022/08/07 02:06:11;;;;;;;1.15;0.77;;;20.80;81.70;;;;;;5033001;28;20025;-74
2022/08/07 02:08:39;;;;;;;1.35;0.88;;;20.80;81.80;;;;;;5033225;28;20083;-75
2022/08/07 02:11:07;;;;;;;1.38;0.80;;;20.80;81.80;;;;;;5039414;28;20021;-76
2022/08/07 02:13:35;;;;;;;1.00;0.90;;;20.80;81.90;;;;;;5016729;28;20022;-74
2022/08/07 02:16:03;;;;;;;1.15;0.82;;;20.80;81.90;;;;;;5038828;28;20050;-74
2022/08/07 02:18:31;;;;;;;0.98;0.65;;;20.80;82.00;;;;;;5034044;28;20024;-75
2022/08/07 02:20:59;;;;;;;0.85;0.80;;;20.80;81.90;;;;;;5040175;28;20017;-75
2022/08/07 02:23:26;;;;;;;2.70;0.90;;;20.80;81.80;;;;;;5035674;28;20148;-75
2022/08/07 02:25:56;;;;;;;1.52;0.70;;;20.90;81.70;;;;;;5037806;28;20025;-75
2022/08/07 02:28:25;;;;;;;1.35;0.85;;;20.90;81.70;;;;;;5032578;28;20071;-76
2022/08/07 02:30:52;;;;;;;1.08;0.73;;;20.90;81.60;;;;;;5050864;28;20220;-75
2022/08/07 02:33:19;;;;;;;1.00;0.80;;;20.90;81.60;;;;;;5030637;28;20044;-74
2022/08/07 02:35:45;;;;;;;2.28;1.20;;;20.90;81.60;;;;;;5028522;28;20021;-75
2022/08/07 02:38:13;;;;;;;2.33;1.00;;;20.90;81.60;;;;;;5035072;28;20378;-75
2022/08/07 02:40:39;;;;;;;1.25;0.73;;;20.90;81.60;;;;;;5030462;28;20024;-75
2022/08/07 02:43:06;;;;;;;1.95;0.80;;;20.90;81.80;;;;;;5043697;28;20413;-75
2022/08/07 02:45:33;;;;;;;1.73;0.90;;;20.90;81.90;;;;;;5036202;28;20087;-75
2022/08/07 02:47:58;;;;;;;1.20;0.95;;;20.80;81.90;;;;;;5030961;28;20049;-76
2022/08/07 02:50:24;;;;;;;1.55;0.93;;;20.80;81.90;;;;;;5031809;28;20068;-76
2022/08/07 02:52:54;;;;;;;1.67;1.15;;;20.80;82.00;;;;;;5035243;28;20025;-75
2022/08/07 02:55:25;;;;;;;1.10;0.80;;;20.80;82.00;;;;;;5029884;28;20485;-75
2022/08/07 02:57:51;;;;;;;;;;;20.80;82.00;;;;;;5037923;28;20061;-75
2022/08/07 03:00:17;;;;;;;1.70;0.90;;;20.80;82.10;;;;;;5015826;28;20525;-75
2022/08/07 03:02:47;;;;;;;1.80;0.90;;;20.80;82.10;;;;;;5043406;28;20032;-75
2022/08/07 03:05:15;;;;;;;1.10;0.90;;;20.80;82.10;;;;;;5031935;28;20048;-75
2022/08/07 03:07:41;;;;;;;1.48;0.82;;;20.80;82.20;;;;;;5032064;28;20095;-75
2022/08/07 03:10:08;;;;;;;1.00;0.88;;;20.80;82.20;;;;;;5016455;28;20116;-75
2022/08/07 03:12:35;;;;;;;1.77;1.10;;;20.80;82.10;;;;;;5039167;28;20018;-75
2022/08/07 03:15:03;;;;;;;1.27;0.90;;;20.80;82.00;;;;;;5032297;28;20034;-74
2022/08/07 03:17:29;;;;;;;1.27;0.88;;;20.80;82.00;;;;;;5031835;28;20025;-74
2022/08/07 03:19:55;;;;;;;1.50;1.00;;;20.90;81.90;;;;;;5031322;28;20100;-75
2022/08/07 03:22:23;;;;;;;1.40;0.98;;;20.90;81.80;;;;;;5025908;28;20117;-75
2022/08/07 03:24:49;;;;;;;1.75;0.90;;;20.90;81.90;;;;;;5034659;28;20025;-75
2022/08/07 03:27:15;;;;;;;1.48;1.00;;;20.90;81.90;;;;;;5049627;28;20094;-75
2022/08/07 03:29:51;;;;;;;1.30;0.90;;;20.80;81.90;;;;;;5040051;28;20037;-74
2022/08/07 03:32:21;;;;;;;1.67;0.90;;;20.90;82.00;;;;;;5026300;28;20049;-75
2022/08/07 03:34:50;;;;;;;1.35;1.00;;;20.80;82.10;;;;;;5032723;28;20032;-74
2022/08/07 03:37:18;;;;;;;1.95;1.10;;;20.80;82.10;;;;;;5031278;28;20505;-76
2022/08/07 03:39:46;;;;;;;1.40;1.00;;;20.80;82.20;;;;;;5033727;28;20025;-75
2022/08/07 03:42:13;;;;;;;1.88;1.10;;;20.80;82.20;;;;;;5046976;28;20076;-75
2022/08/07 03:44:39;;;;;;;2.72;1.20;;;20.80;82.30;;;;;;5032432;28;20024;-75
2022/08/07 03:47:06;;;;;;;1.08;0.98;;;20.80;82.30;;;;;;5045895;28;20037;-76
2022/08/07 03:49:33;;;;;;;1.80;1.02;;;20.80;82.30;;;;;;5042768;28;20029;-76
2022/08/07 03:51:59;;;;;;;1.58;1.10;;;20.70;82.30;;;;;;5049243;28;20083;-75
2022/08/07 03:54:25;;;;;;;1.42;0.90;;;20.70;82.30;;;;;;5048300;28;20041;-75
2022/08/07 03:56:53;;;;;;;1.90;1.02;;;20.80;82.40;;;;;;5013441;28;20044;-75
2022/08/07 03:59:19;;;;;;;1.67;1.00;;;20.70;82.40;;;;;;5023610;28;20111;-75
2022/08/07 04:01:46;;;;;;;1.83;0.90;;;20.80;82.40;;;;;;5043038;28;20025;-75
2022/08/07 04:04:14;;;;;;;2.17;1.20;;;20.80;82.30;;;;;;5030234;28;20025;-75
2022/08/07 04:06:39;;;;;;;1.20;1.00;;;20.80;82.20;;;;;;5031082;28;20030;-75
2022/08/07 04:09:06;;;;;;;1.13;1.00;;;20.80;82.10;;;;;;5021328;28;20025;-76
2022/08/07 04:11:33;;;;;;;1.60;0.98;;;20.90;82.10;;;;;;5032671;28;20116;-75
2022/08/07 04:14:01;;;;;;;1.40;0.90;;;20.90;82.10;;;;;;5035994;28;20034;-74
2022/08/07 04:16:27;;;;;;;1.67;1.10;;;20.90;82.10;;;;;;5015454;28;20108;-75
2022/08/07 04:18:52;;;;;;;1.15;0.90;;;20.80;82.10;;;;;;5013737;28;20112;-75
2022/08/07 04:21:18;;;;;;;1.30;1.00;;;20.80;82.10;;;;;;5038468;28;20108;-75
2022/08/07 04:23:45;;;;;;;3.00;1.30;;;20.80;82.20;;;;;;5026221;28;20021;-75
2022/08/07 04:26:11;;;;;;;1.92;1.23;;;20.80;82.30;;;;;;5044673;28;20523;-74
2022/08/07 04:28:37;;;;;;;1.20;1.10;;;20.80;82.30;;;;;;5030895;28;20026;-75
2022/08/07 04:31:03;;;;;;;1.63;1.10;;;20.80;82.30;;;;;;5043269;28;20021;-75
2022/08/07 04:33:29;;;;;;;2.30;1.27;;;20.80;82.30;;;;;;5032062;28;20247;-75
2022/08/07 04:35:55;;;;;;;2.03;1.10;;;20.70;82.30;;;;;;5028748;28;20108;-75
2022/08/07 04:38:21;;;;;;;2.00;1.10;;;20.80;82.40;;;;;;5033295;28;20456;-74
2022/08/07 04:40:47;;;;;;;2.45;1.15;;;20.70;82.40;;;;;;5035645;28;20064;-75
2022/08/07 04:43:18;;;;;;;1.65;1.00;;;20.80;82.50;;;;;;5048524;28;20028;-75
2022/08/07 04:45:58;;;;;;;1.55;1.10;;;20.80;82.50;;;;;;5027965;28;20489;-74
2022/08/07 04:48:36;;;;;;;1.67;1.08;;;20.80;82.50;;;;;;5038752;28;20033;-75
2022/08/07 04:51:14;;;;;;;1.52;1.10;;;20.80;82.60;;;;;;5041761;28;20028;-75
2022/08/07 04:54:00;;;;;;;1.65;1.10;;;20.80;82.50;;;;;;5046591;28;20057;-75
2022/08/07 04:56:39;;;;;;;2.17;1.10;;;20.80;82.40;;;;;;5039714;28;20032;-75
2022/08/07 04:59:12;;;;;;;1.38;0.93;;;20.80;82.30;;;;;;5037557;28;20111;-74
2022/08/07 05:02:02;;;;;;;1.23;1.08;;;20.80;82.20;;;;;;5016174;28;20025;-74
2022/08/07 05:04:40;;;;;;;1.48;1.10;;;20.80;82.10;;;;;;5035486;28;20816;-75
2022/08/07 05:07:36;;;;;;;1.92;1.00;;;20.90;82.20;;;;;;5023469;28;20029;-75
2022/08/07 05:10:15;;;;;;;1.50;1.08;;;20.80;82.20;;;;;;5017840;28;20026;-75
2022/08/07 05:12:51;;;;;;;1.40;1.10;;;20.80;82.20;;;;;;5023905;28;20026;-74
2022/08/07 05:15:23;;;;;;;1.55;1.10;;;20.80;82.20;;;;;;5027433;28;20505;-74
2022/08/07 05:17:58;;;;;;;2.60;1.25;;;20.80;82.20;;;;;;5041643;28;20482;-75
2022/08/07 05:20:29;;;;;;;1.40;1.00;;;20.80;82.20;;;;;;5033826;28;20410;-75
2022/08/07 05:22:58;;;;;;;1.52;1.15;;;20.80;82.30;;;;;;5033684;28;20032;-74
2022/08/07 05:25:26;;;;;;;1.77;1.02;;;20.80;82.40;;;;;;5018124;28;20083;-75
2022/08/07 05:27:52;;;;;;;1.73;1.20;;;20.80;82.40;;;;;;5044876;28;20123;-75
2022/08/07 05:30:19;;;;;;;1.60;1.10;;;20.80;82.40;;;;;;5050932;28;20160;-74
2022/08/07 05:32:46;;;;;;;1.88;1.20;;;20.80;82.40;;;;;;5047801;28;20056;-75
2022/08/07 05:35:13;;;;;;;1.60;1.02;;;20.70;82.40;;;;;;5016530;28;20025;-74
2022/08/07 05:37:40;;;;;;;2.33;1.20;;;20.80;82.50;;;;;;5034791;28;20032;-74
2022/08/07 05:40:06;;;;;;;1.63;1.10;;;20.80;82.50;;;;;;5052596;28;20025;-75
2022/08/07 05:42:32;;;;;;;1.92;1.20;;;20.80;82.40;;;;;;5016748;28;20025;-75
2022/08/07 05:44:59;;;;;;;1.50;0.98;;;20.80;82.40;;;;;;5034667;28;20021;-75
2022/08/07 05:47:25;;;;;;;1.65;1.10;;;20.80;82.20;;;;;;5029054;28;20126;-75
2022/08/07 05:49:52;;;;;;;2.72;1.40;;;20.90;82.20;;;;;;5050343;28;20069;-74
2022/08/07 05:52:18;;;;;;;1.60;1.10;;;20.90;82.00;;;;;;5037714;28;20021;-75
2022/08/07 05:54:44;;;;;;;2.03;1.20;;;20.90;82.00;;;;;;5047921;28;20033;-74
2022/08/07 05:57:11;;;;;;;2.03;1.20;;;20.90;81.80;;;;;;5050637;28;20072;-75
2022/08/07 05:59:38;;;;;;;1.95;1.27;;;20.90;81.90;;;;;;5034739;28;20101;-74
2022/08/07 06:02:06;;;;;;;2.28;1.40;;;20.90;81.90;;;;;;5037435;28;20064;-76
2022/08/07 06:04:35;;;;;;;2.45;1.20;;;20.90;82.00;;;;;;5051067;28;20602;-75
2022/08/07 06:07:04;;;;;;;2.45;1.30;;;20.90;82.00;;;;;;5039453;28;20112;-76
2022/08/07 06:09:31;;;;;;;1.80;1.23;;;20.90;82.30;;;;;;5041146;28;20025;-75
2022/08/07 06:11:57;;;;;;;2.95;1.58;;;20.90;82.10;;;;;;5035928;28;20074;-75
2022/08/07 06:14:23;;;;;;;1.40;1.10;;;20.90;82.20;;;;;;5042893;28;20036;-76
2022/08/07 06:16:50;;;;;;;2.28;1.30;;;20.90;82.10;;;;;;5032429;28;20022;-75
2022/08/07 06:19:17;;;;;;;1.45;1.20;;;20.80;82.10;;;;;;5021638;28;20017;-75
2022/08/07 06:21:44;;;;;;;2.28;1.30;;;20.90;82.10;;;;;;5020137;28;20117;-75
2022/08/07 06:24:09;;;;;;;1.92;1.13;;;20.90;82.10;;;;;;5046050;28;20032;-75
2022/08/07 06:26:38;;;;;;;1.60;1.10;;;20.90;82.10;;;;;;5034878;28;20021;-75
2022/08/07 06:29:04;;;;;;;3.22;1.30;;;20.90;82.00;;;;;;5023823;28;20524;-76
2022/08/07 06:31:29;;;;;;;2.35;1.20;;;20.90;81.90;;;;;;5037982;28;20052;-75
2022/08/07 06:33:55;;;;;;;2.15;1.13;;;20.90;81.90;;;;;;5046069;28;20029;-74
2022/08/07 06:36:20;;;;;;;2.67;1.40;;;21.00;81.90;;;;;;5030685;28;20017;-76
2022/08/07 06:38:46;;;;;;;1.65;1.20;;;21.00;81.80;;;;;;5032483;28;20029;-75
2022/08/07 06:41:17;;;;;;;1.80;1.10;;;21.10;81.70;;;;;;5014212;28;20033;-74
2022/08/07 06:43:44;;;;;;;1.40;1.00;;;21.10;81.40;;;;;;5030687;28;20108;-76
2022/08/07 06:46:10;;;;;;;2.17;1.20;;;21.10;81.30;;;;;;5031772;28;20026;-74
2022/08/07 06:48:36;;;;;;;2.22;1.30;;;21.10;81.20;;;;;;5045369;28;20065;-74
2022/08/07 06:51:08;;;;;;;1.38;1.02;;;21.10;81.30;;;;;;5031507;28;20029;-75
2022/08/07 06:53:37;;;;;;;1.67;1.17;;;21.10;81.30;;;;;;5012101;28;20037;-75
2022/08/07 06:56:05;;;;;;;1.88;1.30;;;21.10;81.30;;;;;;5014709;28;20026;-75
2022/08/07 06:58:35;;;;;;;1.88;1.15;;;21.10;81.40;;;;;;5010645;28;20094;-74
2022/08/07 07:01:04;;;;;;;2.00;1.23;;;21.10;81.40;;;;;;5026657;28;20066;-75
2022/08/07 07:03:30;;;;;;;2.65;1.27;;;21.10;81.30;;;;;;5048439;28;20033;-75
2022/08/07 07:05:56;;;;;;;1.90;1.20;;;21.10;81.30;;;;;;5044507;28;20030;-75
2022/08/07 07:08:28;;;;;;;1.88;1.15;;;21.20;81.30;;;;;;5038979;28;20048;-75
2022/08/07 07:10:55;;;;;;;2.55;1.17;;;21.10;81.20;;;;;;5013879;28;20033;-75
2022/08/07 07:13:33;;;;;;;1.40;1.10;;;21.10;81.00;;;;;;5031569;28;20036;-75
2022/08/07 07:16:06;;;;;;;2.00;1.20;;;21.20;81.10;;;;;;5020879;28;20024;-75
2022/08/07 07:18:39;;;;;;;1.98;1.25;;;21.20;81.00;;;;;;5023456;28;20018;-75
2022/08/07 07:21:11;;;;;;;3.13;1.40;;;21.20;81.10;;;;;;5032395;28;20103;-75
2022/08/07 07:23:37;;;;;;;3.15;1.50;;;21.20;81.20;;;;;;5031530;28;20371;-75
2022/08/07 07:26:06;;;;;;;1.60;1.27;;;21.20;81.10;;;;;;5013866;28;20027;-75
2022/08/07 07:28:38;;;;;;;2.25;1.25;;;21.30;81.00;;;;;;5013803;28;20474;-75
2022/08/07 07:31:23;;;;;;;2.10;1.30;;;21.40;80.80;;;;;;5032408;28;20029;-75
2022/08/07 07:33:54;;;;;;;2.20;1.30;;;21.40;80.70;;;;;;5031290;28;20382;-74
2022/08/07 07:36:23;;;;;;;2.30;1.20;;;21.40;80.50;;;;;;5030040;28;20108;-79
2022/08/07 07:38:49;;;;;;;1.80;1.17;;;21.40;80.40;;;;;;5014590;28;20459;-75
2022/08/07 07:41:17;;;;;;;1.90;1.20;;;21.40;80.40;;;;;;5038276;28;20029;-75
2022/08/07 07:43:45;;;;;;;2.50;1.48;;;21.40;80.40;;;;;;5013447;28;20032;-75
2022/08/07 07:46:12;;;;;;;2.45;1.40;;;21.40;80.40;;;;;;5033163;28;20477;-75
2022/08/07 07:48:40;;;;;;;1.70;1.20;;;21.40;80.50;;;;;;5034140;28;20482;-74
2022/08/07 07:51:06;;;;;;;2.65;1.40;;;21.40;80.50;;;;;;5018641;28;20504;-73
2022/08/07 07:53:35;;;;;;;2.85;1.33;;;21.40;80.60;;;;;;5015240;28;20033;-73
2022/08/07 07:56:02;;;;;;;2.53;1.50;;;21.40;80.50;;;;;;5013193;28;20018;-76
2022/08/07 07:58:32;;;;;;;3.03;1.83;;;21.40;80.50;;;;;;5030660;28;20018;-75
2022/08/07 08:00:58;;;;;;;3.25;1.73;;;21.40;80.40;;;;;;5031856;28;20517;-75
2022/08/07 08:03:24;;;;;;;3.05;1.70;;;21.40;80.50;;;;;;5030494;28;20037;-75
2022/08/07 08:05:51;;;;;;;2.35;1.60;;;21.50;80.50;;;;;;5036695;28;20109;-75
2022/08/07 08:08:17;;;;;;;2.95;1.70;;;21.50;80.50;;;;;;5030600;28;20031;-74
2022/08/07 08:10:44;;;;;;;2.92;1.70;;;21.50;80.50;;;;;;5012774;28;20036;-75
2022/08/07 08:13:10;;;;;;;3.17;1.67;;;21.50;80.50;;;;;;5025975;28;20032;-74
2022/08/07 08:15:38;;;;;;;3.00;1.80;;;21.50;80.50;;;;;;5034836;28;20021;-74
2022/08/07 08:18:08;;;;;;;2.60;1.58;;;21.60;80.40;;;;;;5034569;28;20483;-75
2022/08/07 08:20:34;;;;;;;2.85;1.50;;;21.60;80.30;;;;;;5034595;28;20049;-74
2022/08/07 08:28:41;;;;;;;2.85;1.80;;;21.70;79.90;;;;;;5015183;28;20036;-74
2022/08/07 08:31:10;;;;;;;2.55;1.60;;;21.70;79.90;;;;;;5037003;28;20052;-75
2022/08/07 08:33:37;;;;;;;2.60;1.63;;;21.70;80.00;;;;;;5016657;28;20378;-75
2022/08/07 08:36:05;;;;;;;2.35;1.52;;;21.70;80.00;;;;;;5017015;28;20024;-74
2022/08/07 08:38:43;;;;;;;2.50;1.48;;;21.70;79.90;;;;;;5035428;28;20032;-74
2022/08/07 08:41:30;;;;;;;4.57;2.17;;;21.70;80.00;;;;;;5036792;28;20028;-74
2022/08/07 08:44:18;;;;;;;2.45;1.60;;;21.80;80.10;;;;;;5034147;28;20029;-75
2022/08/07 08:46:53;;;;;;;3.17;1.70;;;21.70;80.00;;;;;;5028214;28;20025;-74
2022/08/07 08:49:39;;;;;;;3.10;1.90;;;21.70;80.00;;;;;;5033775;28;20050;-75
2022/08/07 08:52:07;;;;;;;2.65;1.63;;;21.80;80.00;;;;;;5034087;28;20022;-74
2022/08/07 08:54:56;;;;;;;3.28;1.88;;;21.70;80.20;;;;;;5033511;28;20104;-74
2022/08/07 08:57:33;;;;;;;2.50;1.60;;;21.70;80.20;;;;;;5039549;28;20021;-74
2022/08/07 09:00:05;;;;;;;3.75;1.90;;;21.80;80.30;;;;;;5033252;28;20017;-75
2022/08/07 09:02:59;;;;;;;2.38;1.50;;;21.80;80.30;;;;;;5041423;28;20037;-74
2022/08/07 09:05:45;;;;;;;3.42;1.77;;;21.80;80.30;;;;;;5018889;28;20119;-74
2022/08/07 09:08:28;;;;;;;3.22;1.83;;;21.80;80.10;;;;;;5034169;28;20087;-74
2022/08/07 09:11:15;;;;;;;3.60;2.05;;;21.90;80.00;;;;;;5037431;28;20040;-74
2022/08/07 09:14:11;;;;;;;3.33;1.90;;;21.90;79.80;;;;;;5015602;28;20021;-75
2022/08/07 09:16:45;;;;;;;3.20;1.90;;;22.00;79.70;;;;;;5011887;28;20486;-74
2022/08/07 09:19:38;;;;;;;2.65;1.63;;;22.00;79.70;;;;;;5033518;28;20022;-75
2022/08/07 09:22:32;;;;;;;3.05;1.90;;;22.00;79.40;;;;;;5015384;28;20104;-74
2022/08/07 09:25:14;;;;;;;3.20;1.80;;;22.00;79.40;;;;;;5029121;28;20045;-76
2022/08/07 09:28:03;;;;;;;3.67;1.92;;;22.00;79.60;;;;;;5030994;28;20029;-75
2022/08/07 09:30:51;;;;;;;2.80;1.75;;;22.00;79.60;;;;;;5014382;28;20170;-74
2022/08/07 09:33:55;;;;;;;2.95;1.80;;;22.00;79.60;;;;;;5051490;28;20063;-74
2022/08/07 09:36:39;;;;;;;3.63;2.03;;;22.00;79.70;;;;;;5015323;28;20462;-74
2022/08/07 09:39:21;;;;;;;3.70;2.08;;;22.00;79.80;;;;;;5017121;28;20025;-74
2022/08/07 09:42:03;;;;;;;3.17;1.88;;;22.00;79.80;;;;;;5022232;28;20092;-75
2022/08/07 09:44:51;;;;;;;2.45;1.60;;;22.00;80.40;;;;;;5032583;28;20029;-75
2022/08/07 09:47:45;;;;;;;3.30;2.03;;;22.00;79.90;;;;;;5048981;28;20029;-74
2022/08/07 09:50:21;;;;;;;3.28;1.90;;;22.00;79.90;;;;;;5033893;28;20075;-75
2022/08/07 09:52:51;;;;;;;2.85;1.83;;;22.00;79.90;;;;;;5015124;28;20040;-75
2022/08/07 09:55:48;;;;;;;3.00;1.90;;;22.00;79.80;;;;;;5032817;28;20025;-75
2022/08/07 09:58:47;;;;;;;2.88;1.80;;;22.00;79.80;;;;;;5041397;28;20033;-74
2022/08/07 10:01:35;;;;;;;2.58;1.70;;;22.10;79.80;;;;;;5022256;28;20017;-74
2022/08/07 10:04:22;;;;;;;2.55;1.70;;;22.10;79.60;;;;;;5014723;28;20116;-73
2022/08/07 10:06:57;;;;;;;3.05;1.80;;;22.10;79.60;;;;;;5037955;28;20072;-74
2022/08/07 10:10:10;;;;;;;2.28;1.60;;;22.10;79.50;;;;;;5021717;28;20489;-72
2022/08/07 10:13:03;;;;;;;2.95;1.50;;;22.10;79.40;;;;;;4971153;28;20097;-74
2022/08/07 10:15:28;;;;;;;2.28;1.58;;;22.10;79.40;;;;;;5048815;28;20100;-74
2022/08/07 10:18:16;;;;;;;3.33;1.77;;;22.10;79.60;;;;;;5032361;28;20435;-74
2022/08/07 10:21:04;;;;;;;2.22;1.60;;;22.00;79.50;;;;;;5043781;28;20619;-74
2022/08/07 10:23:57;;;;;;;2.83;1.80;;;22.00;80.10;;;;;;5032138;28;20029;-74
2022/08/07 10:26:34;;;;;;;2.83;1.60;;;22.00;79.70;;;;;;5013780;28;20037;-75
2022/08/07 10:29:15;;;;;;;2.92;1.85;;;22.00;79.80;;;;;;5032163;28;20025;-75
2022/08/07 10:31:50;;;;;;;3.03;1.50;;;22.00;79.80;;;;;;5015041;28;20030;-75
2022/08/07 10:34:24;;;;;;;2.85;1.70;;;22.00;80.00;;;;;;5029883;28;20548;-75
2022/08/07 10:37:20;;;;;;;2.03;1.50;;;22.00;80.00;;;;;;5037341;28;20036;-74
2022/08/07 10:40:11;;;;;;;2.20;1.40;;;22.00;80.00;;;;;;5017476;28;20033;-74
2022/08/07 10:42:39;;;;;;;2.05;1.50;;;22.00;79.90;;;;;;5020322;28;20394;-74
2022/08/07 10:45:27;;;;;;;1.88;1.30;;;22.10;79.80;;;;;;5032306;28;20215;-74
2022/08/07 10:48:13;;;;;;;2.47;1.58;;;22.10;79.80;;;;;;5008499;28;20021;-74
2022/08/07 10:50:50;;;;;;;2.80;1.90;;;22.10;79.80;;;;;;5028566;28;20053;-75
2022/08/07 10:53:45;;;;;;;2.08;1.30;;;22.10;79.80;;;;;;5012017;28;20083;-74
2022/08/07 10:56:35;;;;;;;2.03;1.50;;;22.10;79.60;;;;;;4994433;28;20041;-74
2022/08/07 10:59:19;;;;;;;1.88;1.42;;;22.20;79.50;;;;;;5012752;28;20041;-74
2022/08/07 11:01:57;;;;;;;2.35;1.63;;;22.20;79.50;;;;;;5013418;28;20024;-73
2022/08/07 11:04:34;;;;;;;2.88;1.40;;;22.20;79.30;;;;;;5031318;28;20029;-74
2022/08/07 11:07:18;;;;;;;2.42;1.50;;;22.20;78.90;;;;;;5032053;28;20026;-73
2022/08/07 11:09:51;;;;;;;2.13;1.58;;;22.20;79.00;;;;;;5031219;28;20036;-75
2022/08/07 11:12:24;;;;;;;2.60;1.40;;;22.20;79.00;;;;;;5013554;28;20545;-75
2022/08/07 11:14:57;;;;;;;2.78;1.30;;;22.20;79.00;;;;;;5031043;28;20511;-71
2022/08/07 11:17:33;;;;;;;2.28;1.45;;;22.20;79.10;;;;;;5030747;28;20091;-75
2022/08/07 11:20:17;;;;;;;2.17;1.45;;;22.10;79.10;;;;;;5013288;28;20029;-72
2022/08/07 11:22:57;;;;;;;2.40;1.48;;;22.10;79.30;;;;;;5030632;28;20513;-72
2022/08/07 11:25:51;;;;;;;2.67;1.60;;;22.10;79.40;;;;;;5012838;28;20402;-71
2022/08/07 11:28:24;;;;;;;1.95;1.40;;;22.00;79.50;;;;;;5029376;28;20032;-74
2022/08/07 11:31:08;;;;;;;2.58;1.52;;;21.90;79.50;;;;;;5029801;28;20022;-70
2022/08/07 11:33:52;;;;;;;1.88;1.30;;;21.90;79.70;;;;;;5033151;28;20030;-72
2022/08/07 11:36:39;;;;;;;2.38;1.40;;;21.90;79.80;;;;;;5032131;28;20033;-73
2022/08/07 11:39:15;;;;;;;4.18;1.60;;;21.90;80.00;;;;;;5031674;28;20116;-75
2022/08/07 11:41:53;;;;;;;3.42;1.70;;;21.90;80.00;;;;;;5010863;28;20071;-74
2022/08/07 11:44:41;;;;;;;1.88;1.30;;;21.90;79.80;;;;;;5012983;28;20087;-74
2022/08/07 11:47:27;;;;;;;3.53;1.58;;;22.00;79.70;;;;;;5030685;28;20026;-77
2022/08/07 11:50:00;;;;;;;2.45;1.38;;;22.10;79.60;;;;;;5030419;28;20032;-73
2022/08/07 11:52:34;;;;;;;2.00;1.40;;;22.00;79.40;;;;;;5021562;28;20017;-72
2022/08/07 11:55:22;;;;;;;1.90;1.23;;;22.00;79.40;;;;;;5032587;28;20105;-71
2022/08/07 11:58:15;;;;;;;3.42;1.60;;;22.00;79.90;;;;;;5026900;28;20053;-71
2022/08/07 12:00:55;;;;;;;3.08;1.50;;;21.90;79.30;;;;;;5016017;28;20565;-74
2022/08/07 12:03:24;;;;;;;3.85;1.50;;;21.90;79.10;;;;;;5016104;28;20111;-74
2022/08/07 12:06:13;;;;;;;4.05;1.60;;;21.90;79.00;;;;;;5034958;28;20108;-74
2022/08/07 12:08:43;;;;;;;7.63;1.90;;;21.90;79.20;;;;;;5034956;28;20026;-74
2022/08/07 12:11:14;;;;;;;3.42;1.55;;;21.90;79.50;;;;;;5028763;28;20033;-74
2022/08/07 12:13:52;;;;;;;2.90;1.40;;;21.90;79.30;;;;;;5025356;28;20405;-74
2022/08/07 12:16:24;;;;;;;3.30;1.40;;;21.90;79.30;;;;;;5034948;28;20103;-74
2022/08/07 12:19:18;;;;;;;3.22;1.38;;;21.90;79.40;;;;;;5039512;28;20026;-75
2022/08/07 12:22:01;;;;;;;3.53;1.30;;;21.90;79.40;;;;;;5032709;28;20053;-74
2022/08/07 12:27:48;;;;;;;3.13;1.60;;;21.90;79.50;;;;;;5021600;28;20071;-74
2022/08/07 12:30:16;;;;;;;1.88;1.40;;;21.80;79.50;;;;;;5034184;28;20018;-75
2022/08/07 12:32:59;;;;;;;3.90;1.70;;;21.90;79.70;;;;;;5033784;28;20021;-74
2022/08/07 12:35:27;;;;;;;2.20;1.30;;;21.90;79.80;;;;;;5034257;28;20033;-75
2022/08/07 12:37:54;;;;;;;2.65;1.52;;;21.90;79.70;;;;;;5017076;28;20447;-74
2022/08/07 12:40:23;;;;;;;3.20;1.55;;;21.90;79.60;;;;;;5031703;28;20048;-75
2022/08/07 12:42:53;;;;;;;2.83;1.30;;;21.90;79.50;;;;;;5032990;28;20017;-75
2022/08/07 12:45:24;;;;;;;2.20;1.40;;;21.90;79.40;;;;;;5034659;28;20033;-75
2022/08/07 12:48:02;;;;;;;2.55;1.63;;;21.90;79.40;;;;;;5034490;28;20028;-74
2022/08/07 12:50:35;;;;;;;2.80;1.35;;;22.00;79.40;;;;;;5027265;28;20034;-75
2022/08/07 12:53:13;;;;;;;2.92;1.52;;;21.90;79.60;;;;;;5034690;28;20034;-72
2022/08/07 12:55:57;;;;;;;2.42;1.30;;;21.90;79.60;;;;;;5022598;28;20163;-75
2022/08/07 12:58:27;;;;;;;2.17;1.42;;;21.90;79.80;;;;;;5045185;28;20399;-74
2022/08/07 13:01:05;;;;;;;3.15;1.30;;;21.80;79.80;;;;;;5033936;28;20631;-73
2022/08/07 13:04:01;;;;;;;2.15;1.52;;;21.80;80.40;;;;;;5008845;28;20478;-73
2022/08/07 13:06:37;;;;;;;2.72;1.60;;;21.80;79.90;;;;;;5035243;28;20029;-74
2022/08/07 13:09:12;;;;;;;2.50;1.38;;;21.80;80.00;;;;;;5015935;28;20112;-75
2022/08/07 13:11:51;;;;;;;2.58;1.40;;;21.80;80.10;;;;;;5033589;28;20033;-74
2022/08/07 13:14:32;;;;;;;2.22;1.30;;;21.80;80.10;;;;;;5031238;28;20041;-73
2022/08/07 13:17:10;;;;;;;2.80;1.40;;;21.70;80.10;;;;;;5028177;28;20440;-74
2022/08/07 13:19:49;;;;;;;2.35;1.30;;;21.80;80.20;;;;;;5034829;28;20546;-74
2022/08/07 13:22:36;;;;;;;2.55;1.40;;;21.70;80.30;;;;;;5031751;28;20537;-74
2022/08/07 13:25:10;;;;;;;2.42;1.30;;;21.70;80.40;;;;;;5029147;28;20080;-74